Time;durP1;ratioP1;P1;durP2;ratioP2;P2;SDS_P1;SDS_P2;PMS_P1;PMS_P2;Temp;Humidity;BMP_temperature;BMP_pressure;BME280_temperature;BME280_humidity;BME280_pressure;Samples;Min_cycle;Max_cycle;Signal;HPM_P1;HPM_P2
2021/11/04 00:00:37;;;;;;;0.93;0.20;;;4.90;99.90;;;;;;6252793;22;20053;-94
2021/11/04 00:03:04;;;;;;;2.13;0.50;;;4.90;99.90;;;;;;6251947;22;20011;-93
2021/11/04 00:05:30;;;;;;;0.45;0.20;;;5.00;99.90;;;;;;6252294;22;20069;-94
2021/11/04 00:08:03;;;;;;;1.17;0.40;;;4.90;99.90;;;;;;6254334;22;19996;-94
2021/11/04 00:10:29;;;;;;;1.73;0.52;;;5.00;99.90;;;;;;6279533;22;20003;-94
2021/11/04 00:12:55;;;;;;;3.30;0.50;;;5.00;99.90;;;;;;6250775;22;20069;-94
2021/11/04 00:15:21;;;;;;;2.55;0.70;;;5.00;99.90;;;;;;6250517;22;20090;-94
2021/11/04 00:17:47;;;;;;;2.40;0.40;;;5.00;99.90;;;;;;6250080;22;20022;-94
2021/11/04 00:20:14;;;;;;;2.17;0.50;;;5.00;99.90;;;;;;6277929;22;20037;-93
2021/11/04 00:22:40;;;;;;;1.70;0.50;;;5.00;99.90;;;;;;6248521;22;20019;-93
2021/11/04 00:25:07;;;;;;;1.90;0.32;;;5.00;99.90;;;;;;6249493;22;20010;-93
2021/11/04 00:27:33;;;;;;;3.30;0.50;;;4.90;99.90;;;;;;6276307;22;20008;-94
2021/11/04 00:29:59;;;;;;;1.30;0.38;;;4.90;99.90;;;;;;6249982;22;20007;-91
2021/11/04 00:32:25;;;;;;;1.73;0.30;;;4.90;99.90;;;;;;6249434;22;20449;-94
2021/11/04 00:34:50;;;;;;;0.65;0.40;;;4.90;99.90;;;;;;6276025;22;20000;-92
2021/11/04 00:37:16;;;;;;;4.07;0.90;;;5.00;99.90;;;;;;6249360;22;20022;-93
2021/11/04 00:39:42;;;;;;;2.35;0.60;;;5.00;99.90;;;;;;6277199;22;20042;-93
2021/11/04 00:42:07;;;;;;;2.97;0.47;;;5.00;99.90;;;;;;6277126;22;20004;-94
2021/11/04 00:44:33;;;;;;;3.28;0.50;;;5.00;99.90;;;;;;6251982;22;20004;-94
2021/11/04 00:46:59;;;;;;;1.45;0.43;;;5.00;99.90;;;;;;6284563;22;20134;-94
2021/11/04 00:49:25;;;;;;;2.90;0.45;;;5.00;99.90;;;;;;6259369;22;20366;-94
2021/11/04 00:51:51;;;;;;;0.90;0.50;;;5.00;99.90;;;;;;6256815;22;20063;-92
2021/11/04 00:54:17;;;;;;;1.55;0.32;;;5.00;99.90;;;;;;6256110;22;20378;-93
2021/11/04 00:56:43;;;;;;;4.97;0.90;;;5.00;99.90;;;;;;6253927;22;20012;-93
2021/11/04 00:59:09;;;;;;;1.20;0.60;;;5.00;99.90;;;;;;6278517;22;20331;-94
2021/11/04 01:01:34;;;;;;;2.20;0.40;;;5.00;99.90;;;;;;6251386;22;20012;-93
2021/11/04 01:04:00;;;;;;;0.68;0.40;;;5.10;99.90;;;;;;6251496;22;20376;-94
2021/11/04 01:06:26;;;;;;;0.40;0.30;;;5.10;99.90;;;;;;6250657;22;20031;-94
2021/11/04 01:08:52;;;;;;;3.00;0.55;;;5.10;99.90;;;;;;6250612;22;20010;-93
2021/11/04 01:11:18;;;;;;;1.60;0.47;;;5.20;99.90;;;;;;6250495;22;20386;-94
2021/11/04 01:13:45;;;;;;;1.15;0.50;;;5.20;99.90;;;;;;6250980;22;20086;-92
2021/11/04 01:16:10;;;;;;;1.27;0.40;;;5.30;99.90;;;;;;6251645;22;20113;-94
2021/11/04 01:18:36;;;;;;;0.95;0.22;;;5.30;99.90;;;;;;6251197;22;20324;-92
2021/11/04 01:21:02;;;;;;;0.70;0.40;;;5.30;99.90;;;;;;6251295;22;20023;-93
2021/11/04 01:23:27;;;;;;;3.15;0.60;;;5.40;99.90;;;;;;6250809;22;20012;-93
2021/11/04 01:25:53;;;;;;;3.22;0.30;;;5.40;99.90;;;;;;6250998;22;20035;-94
2021/11/04 01:28:19;;;;;;;2.92;0.47;;;5.50;99.90;;;;;;6250308;22;20003;-93
2021/11/04 01:30:45;;;;;;;1.60;0.30;;;5.50;99.90;;;;;;6250264;22;20003;-92
2021/11/04 01:33:11;;;;;;;1.65;0.50;;;5.50;99.90;;;;;;6250347;22;20004;-94
2021/11/04 01:35:37;;;;;;;1.75;0.45;;;5.50;99.90;;;;;;6250358;22;20011;-94
2021/11/04 01:38:04;;;;;;;0.22;0.20;;;5.50;99.90;;;;;;6250386;22;20077;-94
2021/11/04 01:40:31;;;;;;;1.38;0.40;;;5.50;99.90;;;;;;6250136;22;20031;-93
2021/11/04 01:42:58;;;;;;;0.50;0.45;;;5.50;99.90;;;;;;6249826;22;20019;-91
2021/11/04 01:45:25;;;;;;;1.35;0.30;;;5.60;99.90;;;;;;6250233;22;19996;-94
2021/11/04 01:47:51;;;;;;;3.45;0.57;;;5.60;99.90;;;;;;6249952;22;20339;-93
2021/11/04 01:50:19;;;;;;;0.20;0.20;;;5.60;99.90;;;;;;6250101;22;20003;-93
2021/11/04 01:52:46;;;;;;;0.75;0.40;;;5.60;99.90;;;;;;6249889;22;20053;-94
2021/11/04 01:55:21;;;;;;;1.63;0.50;;;5.60;99.90;;;;;;6249976;22;20423;-93
2021/11/04 01:57:47;;;;;;;0.73;0.20;;;5.60;99.90;;;;;;6250097;22;20019;-95
2021/11/04 02:00:14;;;;;;;3.17;0.40;;;5.60;99.90;;;;;;6250154;22;20007;-95
2021/11/04 02:02:52;;;;;;;0.63;0.32;;;5.60;99.90;;;;;;6250056;22;20012;-94
2021/11/04 02:05:25;;;;;;;1.65;0.75;;;5.60;99.90;;;;;;6250097;22;20004;-94
2021/11/04 02:08:26;;;;;;;2.08;0.30;;;5.60;99.90;;;;;;6250011;22;20007;-93
2021/11/04 02:11:14;;;;;;;3.33;0.40;;;5.60;99.90;;;;;;6249853;22;20019;-93
2021/11/04 02:13:58;;;;;;;0.65;0.40;;;5.60;99.90;;;;;;6249834;22;20007;-94
2021/11/04 02:16:26;;;;;;;2.95;0.40;;;5.60;99.90;;;;;;6249960;22;20061;-92
2021/11/04 02:18:54;;;;;;;0.75;0.30;;;5.60;99.90;;;;;;6250013;22;20043;-93
2021/11/04 02:21:36;;;;;;;0.80;0.35;;;5.60;99.90;;;;;;6251580;22;20008;-94
2021/11/04 02:24:23;;;;;;;2.25;0.38;;;5.60;99.90;;;;;;6251760;22;20011;-93
2021/11/04 02:26:50;;;;;;;1.23;0.47;;;5.50;99.90;;;;;;6251654;22;20012;-92
2021/11/04 02:29:17;;;;;;;3.53;0.50;;;5.50;99.90;;;;;;6251595;22;20004;-93
2021/11/04 02:31:44;;;;;;;0.38;0.38;;;5.40;99.90;;;;;;6251643;22;20039;-92
2021/11/04 02:34:10;;;;;;;1.42;0.40;;;5.40;99.90;;;;;;6251903;22;20012;-93
2021/11/04 02:36:37;;;;;;;0.75;0.40;;;5.40;99.90;;;;;;6251604;22;20580;-93
2021/11/04 02:39:04;;;;;;;1.88;0.50;;;5.30;99.90;;;;;;6251650;22;20070;-94
2021/11/04 02:41:31;;;;;;;1.38;0.50;;;5.30;99.90;;;;;;6251531;22;20018;-94
2021/11/04 02:43:59;;;;;;;2.03;0.40;;;5.30;99.90;;;;;;6251608;22;20328;-93
2021/11/04 02:46:26;;;;;;;0.93;0.40;;;5.20;99.90;;;;;;6252684;22;20435;-93
2021/11/04 02:48:52;;;;;;;1.48;0.40;;;5.20;99.90;;;;;;6252783;22;20012;-93
2021/11/04 02:51:19;;;;;;;0.98;0.50;;;5.20;99.90;;;;;;6251492;22;20004;-93
2021/11/04 02:53:46;;;;;;;3.35;0.40;;;5.20;99.90;;;;;;6251559;22;20517;-93
2021/11/04 02:56:12;;;;;;;3.42;0.70;;;5.20;99.90;;;;;;6251326;22;20050;-93
2021/11/04 02:58:38;;;;;;;0.40;0.30;;;5.20;99.90;;;;;;6251670;22;20003;-92
2021/11/04 03:01:04;;;;;;;0.85;0.63;;;5.20;99.90;;;;;;6251631;22;20030;-93
2021/11/04 03:03:30;;;;;;;0.60;0.38;;;5.20;99.90;;;;;;6251267;22;20022;-92
2021/11/04 03:05:56;;;;;;;2.38;0.50;;;5.20;99.90;;;;;;6251483;22;20435;-93
2021/11/04 03:08:24;;;;;;;2.85;0.50;;;5.20;99.90;;;;;;6251110;22;20030;-93
2021/11/04 03:10:54;;;;;;;0.85;0.40;;;5.20;99.90;;;;;;6250822;22;20442;-94
2021/11/04 03:13:20;;;;;;;0.93;0.40;;;5.20;99.90;;;;;;6250331;22;20023;-94
2021/11/04 03:15:50;;;;;;;0.70;0.40;;;5.20;99.90;;;;;;6250226;22;20234;-93
2021/11/04 03:18:17;;;;;;;1.30;0.30;;;5.20;99.90;;;;;;6250280;22;20022;-93
2021/11/04 03:20:47;;;;;;;0.55;0.40;;;5.20;99.90;;;;;;6250297;22;20540;-93
2021/11/04 03:23:13;;;;;;;0.75;0.40;;;5.20;99.90;;;;;;6250423;22;20011;-93
2021/11/04 03:25:41;;;;;;;2.08;0.65;;;5.10;99.90;;;;;;6250332;22;19995;-91
2021/11/04 03:28:07;;;;;;;1.30;0.52;;;5.10;99.90;;;;;;6250127;22;20003;-93
2021/11/04 03:30:38;;;;;;;1.27;0.47;;;5.10;99.90;;;;;;6250026;22;20082;-93
2021/11/04 03:33:06;;;;;;;1.55;0.50;;;5.10;99.90;;;;;;6249931;22;20057;-94
2021/11/04 03:35:35;;;;;;;0.88;0.40;;;5.10;99.90;;;;;;6249998;22;20065;-93
2021/11/04 03:38:04;;;;;;;2.20;0.40;;;5.10;99.90;;;;;;6250256;22;20095;-93
2021/11/04 03:40:30;;;;;;;1.23;0.43;;;5.10;99.90;;;;;;6249856;22;20015;-94
2021/11/04 03:42:57;;;;;;;1.67;0.50;;;5.00;99.90;;;;;;6249779;22;20106;-93
2021/11/04 03:45:24;;;;;;;1.80;0.52;;;5.00;99.90;;;;;;6249812;22;20053;-94
2021/11/04 03:47:51;;;;;;;1.25;0.60;;;5.00;99.90;;;;;;6249914;22;20061;-92
2021/11/04 03:50:18;;;;;;;1.10;0.25;;;4.90;99.90;;;;;;6247922;22;20004;-93
2021/11/04 03:52:44;;;;;;;0.32;0.32;;;4.90;99.90;;;;;;6249968;22;20395;-93
2021/11/04 03:55:12;;;;;;;0.63;0.30;;;4.90;99.90;;;;;;6250294;22;20094;-93
2021/11/04 03:57:40;;;;;;;5.45;0.45;;;4.90;99.90;;;;;;6251993;22;20012;-92
2021/11/04 04:00:08;;;;;;;0.73;0.50;;;4.90;99.90;;;;;;6251250;22;20186;-94
2021/11/04 04:02:35;;;;;;;2.75;0.30;;;4.90;99.90;;;;;;6252261;22;20008;-93
2021/11/04 04:05:01;;;;;;;1.23;0.50;;;4.90;99.90;;;;;;6257187;22;20082;-92
2021/11/04 04:07:27;;;;;;;3.80;0.47;;;4.80;99.90;;;;;;6259470;22;20011;-92
2021/11/04 04:09:54;;;;;;;1.98;0.47;;;4.90;99.90;;;;;;6257443;22;19999;-93
2021/11/04 04:12:19;;;;;;;0.60;0.50;;;4.90;99.90;;;;;;6258156;22;20012;-91
2021/11/04 04:14:45;;;;;;;0.82;0.30;;;4.90;99.90;;;;;;6256270;22;20086;-91
2021/11/04 04:17:11;;;;;;;1.02;0.60;;;4.90;99.90;;;;;;6255667;22;20499;-93
2021/11/04 04:19:36;;;;;;;3.45;0.40;;;4.90;99.90;;;;;;6253055;22;19996;-92
2021/11/04 04:22:03;;;;;;;0.20;0.20;;;4.80;99.90;;;;;;6251107;22;20013;-93
2021/11/04 04:24:29;;;;;;;5.35;0.57;;;4.90;99.90;;;;;;6250208;22;19995;-92
2021/11/04 04:26:55;;;;;;;2.10;0.55;;;4.80;99.90;;;;;;6250033;22;20077;-93
2021/11/04 04:29:20;;;;;;;2.50;0.40;;;4.80;99.90;;;;;;6250006;22;20450;-92
2021/11/04 04:31:46;;;;;;;2.47;0.40;;;4.80;99.90;;;;;;6250020;22;20008;-93
2021/11/04 04:34:12;;;;;;;1.10;0.50;;;4.80;99.90;;;;;;6249681;22;20003;-90
2021/11/04 04:36:38;;;;;;;0.70;0.40;;;4.90;99.90;;;;;;6249589;22;20423;-93
2021/11/04 04:39:05;;;;;;;2.20;0.57;;;4.80;99.90;;;;;;6249637;22;20008;-94
2021/11/04 04:41:31;;;;;;;0.52;0.30;;;4.90;99.90;;;;;;6249278;22;20007;-94
2021/11/04 04:43:57;;;;;;;1.55;0.40;;;4.90;99.90;;;;;;6249298;22;20023;-93
2021/11/04 04:46:22;;;;;;;2.15;0.30;;;4.90;99.90;;;;;;6249957;22;20008;-93
2021/11/04 04:48:49;;;;;;;2.83;0.40;;;4.90;99.90;;;;;;6249503;22;20106;-93
2021/11/04 04:51:15;;;;;;;0.77;0.35;;;4.90;99.90;;;;;;6249623;22;20000;-95
2021/11/04 04:53:40;;;;;;;1.63;0.38;;;4.90;99.90;;;;;;6249306;22;20011;-93
2021/11/04 04:56:06;;;;;;;0.65;0.38;;;4.90;99.90;;;;;;6249434;22;20039;-94
2021/11/04 04:58:32;;;;;;;2.20;0.30;;;4.90;99.90;;;;;;6249181;22;20362;-93
2021/11/04 05:00:59;;;;;;;2.47;0.30;;;4.90;99.90;;;;;;6249154;22;20004;-92
2021/11/04 05:03:24;;;;;;;3.63;0.32;;;4.90;99.90;;;;;;6248980;22;20008;-92
2021/11/04 05:05:50;;;;;;;0.47;0.30;;;4.90;99.90;;;;;;6249720;22;20007;-93
2021/11/04 05:08:16;;;;;;;1.88;0.40;;;4.90;99.90;;;;;;6249467;22;20050;-92
2021/11/04 05:10:41;;;;;;;1.10;0.40;;;4.90;99.90;;;;;;6249210;22;20086;-93
2021/11/04 05:13:07;;;;;;;0.30;0.30;;;4.90;99.90;;;;;;6249440;22;20027;-93
2021/11/04 05:15:33;;;;;;;2.47;0.40;;;4.90;99.90;;;;;;6249206;22;20010;-92
2021/11/04 05:17:58;;;;;;;3.40;0.43;;;4.90;99.90;;;;;;6249474;22;20098;-92
2021/11/04 05:20:24;;;;;;;0.77;0.40;;;4.90;99.90;;;;;;6249213;22;20057;-92
2021/11/04 05:22:50;;;;;;;0.68;0.50;;;4.90;99.90;;;;;;6248976;22;20008;-92
2021/11/04 05:25:16;;;;;;;1.33;0.30;;;4.90;99.90;;;;;;6249419;22;19999;-92
2021/11/04 05:27:47;;;;;;;2.05;0.40;;;4.90;99.90;;;;;;6249289;22;20004;-93
2021/11/04 05:30:18;;;;;;;0.50;0.32;;;4.90;99.90;;;;;;6248812;22;20000;-93
2021/11/04 05:32:44;;;;;;;1.20;0.35;;;4.90;99.90;;;;;;6249255;22;20101;-92
2021/11/04 05:35:10;;;;;;;0.52;0.38;;;5.00;99.90;;;;;;6248966;22;20034;-92
2021/11/04 05:37:36;;;;;;;2.78;0.40;;;5.00;99.90;;;;;;6249132;22;20058;-93
2021/11/04 05:40:02;;;;;;;0.45;0.25;;;4.90;99.90;;;;;;6249056;22;20000;-93
2021/11/04 05:42:28;;;;;;;1.98;0.25;;;4.90;99.90;;;;;;6248835;22;20004;-92
2021/11/04 05:44:53;;;;;;;0.70;0.30;;;5.00;99.90;;;;;;6248992;22;20166;-93
2021/11/04 05:47:19;;;;;;;0.40;0.38;;;5.00;99.90;;;;;;6249162;22;20004;-92
2021/11/04 05:49:44;;;;;;;1.63;0.38;;;5.00;99.90;;;;;;6249127;22;20008;-92
2021/11/04 05:52:10;;;;;;;1.73;0.35;;;5.00;99.90;;;;;;6249125;22;20083;-92
2021/11/04 05:54:37;;;;;;;0.50;0.20;;;5.00;99.90;;;;;;6250730;22;20069;-92
2021/11/04 05:57:03;;;;;;;0.98;0.40;;;5.00;99.90;;;;;;6250768;22;20012;-92
2021/11/04 05:59:31;;;;;;;0.68;0.30;;;5.00;99.90;;;;;;6250903;22;20057;-94
2021/11/04 06:01:56;;;;;;;4.82;0.73;;;5.00;99.90;;;;;;6251292;22;20003;-94
2021/11/04 06:04:23;;;;;;;2.28;0.40;;;5.00;99.90;;;;;;6251073;22;20445;-93
2021/11/04 06:06:50;;;;;;;1.55;0.35;;;5.00;99.90;;;;;;6251120;22;20037;-93
2021/11/04 06:09:16;;;;;;;2.05;0.32;;;5.00;99.90;;;;;;6251318;22;20015;-95
2021/11/04 06:11:41;;;;;;;1.98;0.40;;;5.00;99.90;;;;;;6250546;22;20012;-93
2021/11/04 06:14:07;;;;;;;1.00;0.40;;;5.00;99.90;;;;;;6250963;22;20045;-93
2021/11/04 06:16:33;;;;;;;2.78;0.50;;;5.10;99.90;;;;;;6250966;22;20011;-90
2021/11/04 06:18:59;;;;;;;1.13;0.40;;;5.00;99.90;;;;;;6251008;22;20039;-90
2021/11/04 06:21:25;;;;;;;3.38;0.50;;;5.10;99.90;;;;;;6250842;22;20024;-92
2021/11/04 06:23:50;;;;;;;2.28;0.40;;;5.10;99.90;;;;;;6250512;22;20493;-93
2021/11/04 06:26:16;;;;;;;3.22;0.30;;;5.10;99.90;;;;;;6250803;22;20038;-92
2021/11/04 06:28:42;;;;;;;0.98;0.22;;;5.10;99.90;;;;;;6250618;22;20011;-93
2021/11/04 06:31:08;;;;;;;3.30;0.50;;;5.10;99.90;;;;;;6250723;22;19995;-93
2021/11/04 06:33:34;;;;;;;2.38;0.20;;;5.20;99.90;;;;;;6250781;22;20004;-93
2021/11/04 06:36:00;;;;;;;1.02;0.30;;;5.20;99.90;;;;;;6251411;22;20030;-93
2021/11/04 06:38:25;;;;;;;2.70;0.50;;;5.20;99.90;;;;;;6250747;22;20438;-93
2021/11/04 06:40:51;;;;;;;3.53;0.38;;;5.10;99.90;;;;;;6251342;22;20004;-92
2021/11/04 06:43:27;;;;;;;0.40;0.30;;;5.20;99.90;;;;;;6245419;23;20511;-91
2021/11/04 06:45:53;;;;;;;2.88;0.47;;;5.20;99.90;;;;;;6248049;22;20031;-93
2021/11/04 06:48:48;;;;;;;2.15;0.50;;;5.20;99.90;;;;;;6247090;22;20004;-93
2021/11/04 06:51:18;;;;;;;2.30;0.47;;;5.30;99.90;;;;;;6246487;22;20004;-94
2021/11/04 06:53:55;;;;;;;4.33;0.40;;;5.20;99.90;;;;;;6246758;23;20018;-92
2021/11/04 06:56:22;;;;;;;4.38;0.43;;;5.30;99.90;;;;;;6247110;22;20004;-94
2021/11/04 06:58:51;;;;;;;3.60;0.40;;;5.30;99.90;;;;;;6246864;22;20016;-94
2021/11/04 07:01:20;;;;;;;5.85;0.50;;;5.30;99.90;;;;;;6247115;22;20011;-93
2021/11/04 07:04:02;;;;;;;2.50;0.50;;;5.30;99.90;;;;;;6246896;22;20008;-93
2021/11/04 07:06:30;;;;;;;0.77;0.40;;;5.30;99.90;;;;;;6246194;22;20000;-92
2021/11/04 07:09:02;;;;;;;3.90;0.30;;;5.30;99.90;;;;;;6246211;22;20012;-93
2021/11/04 07:11:32;;;;;;;3.42;0.60;;;5.30;99.90;;;;;;6246913;22;20011;-94
2021/11/04 07:13:58;;;;;;;3.15;0.75;;;5.30;99.90;;;;;;6246293;22;20008;-93
2021/11/04 07:16:26;;;;;;;1.92;0.50;;;5.30;99.90;;;;;;6246355;22;20011;-92
2021/11/04 07:18:53;;;;;;;1.38;0.32;;;5.30;99.90;;;;;;6246441;22;20015;-93
2021/11/04 07:21:32;;;;;;;1.42;0.40;;;5.30;99.90;;;;;;6246275;22;20000;-93
2021/11/04 07:23:59;;;;;;;0.90;0.43;;;5.40;99.90;;;;;;6246792;22;20042;-93
2021/11/04 07:26:36;;;;;;;1.35;0.43;;;5.40;99.90;;;;;;6246766;22;20035;-92
2021/11/04 07:29:04;;;;;;;1.98;0.40;;;5.30;99.90;;;;;;6248995;22;20008;-91
2021/11/04 07:31:34;;;;;;;2.00;0.47;;;5.40;99.90;;;;;;6253259;22;20007;-95
2021/11/04 07:34:03;;;;;;;1.60;0.40;;;5.40;99.90;;;;;;6251721;22;20089;-92
2021/11/04 07:36:31;;;;;;;0.40;0.20;;;5.30;99.90;;;;;;6250824;22;20263;-92
2021/11/04 07:38:58;;;;;;;1.20;0.40;;;5.30;99.90;;;;;;6250036;22;20018;-92
2021/11/04 07:41:24;;;;;;;3.83;0.57;;;5.30;99.90;;;;;;6250181;22;20028;-92
2021/11/04 07:43:50;;;;;;;4.25;0.43;;;5.30;99.90;;;;;;6249864;22;20020;-91
2021/11/04 07:46:17;;;;;;;2.38;0.47;;;5.30;99.90;;;;;;6247650;22;20008;-90
2021/11/04 07:48:43;;;;;;;2.20;1.42;;;5.30;99.90;;;;;;6247084;22;20012;-93
2021/11/04 07:51:12;;;;;;;2.15;0.40;;;5.30;99.90;;;;;;6246555;22;20010;-95
2021/11/04 07:53:39;;;;;;;2.28;0.45;;;5.30;99.90;;;;;;6246416;22;20087;-92
2021/11/04 07:56:06;;;;;;;0.73;0.45;;;5.30;99.90;;;;;;6239678;22;20010;-92
2021/11/04 07:58:32;;;;;;;3.83;0.70;;;5.30;99.90;;;;;;6245631;22;20428;-92
2021/11/04 08:00:58;;;;;;;1.02;0.30;;;5.40;99.90;;;;;;6245700;22;20137;-92
2021/11/04 08:03:23;;;;;;;8.20;0.70;;;5.40;99.90;;;;;;6245802;22;20026;-93
2021/11/04 08:05:49;;;;;;;2.55;0.50;;;5.40;99.90;;;;;;6245677;22;20203;-93
2021/11/04 08:08:15;;;;;;;4.35;0.60;;;5.40;99.90;;;;;;6246056;22;20055;-93
2021/11/04 08:10:41;;;;;;;1.95;0.45;;;5.40;99.90;;;;;;6242729;22;20091;-92
2021/11/04 08:13:08;;;;;;;1.75;0.65;;;5.50;99.90;;;;;;6244638;22;20041;-94
2021/11/04 08:15:35;;;;;;;2.33;0.28;;;5.50;99.90;;;;;;6244767;22;20335;-92
2021/11/04 08:18:01;;;;;;;4.45;0.40;;;5.50;99.90;;;;;;6244846;22;20023;-91
2021/11/04 08:20:29;;;;;;;0.35;0.20;;;5.50;99.90;;;;;;6245836;22;20000;-93
2021/11/04 08:22:55;;;;;;;1.55;0.50;;;5.60;99.90;;;;;;6245784;22;20004;-93
2021/11/04 08:25:21;;;;;;;5.55;0.63;;;5.60;99.90;;;;;;6245803;22;20005;-93
2021/11/04 08:27:46;;;;;;;0.98;0.30;;;5.60;99.90;;;;;;6245480;22;20111;-92
2021/11/04 08:30:15;;;;;;;2.17;0.50;;;5.60;99.90;;;;;;6245774;22;20000;-95
2021/11/04 08:32:43;;;;;;;1.75;0.40;;;5.70;99.90;;;;;;6245596;22;20087;-92
2021/11/04 08:35:08;;;;;;;2.90;0.30;;;5.70;99.90;;;;;;6244629;22;20008;-94
2021/11/04 08:37:35;;;;;;;1.70;0.60;;;5.70;99.90;;;;;;6243378;22;20019;-95
2021/11/04 08:40:01;;;;;;;1.52;0.50;;;5.70;99.90;;;;;;6245644;22;20010;-93
2021/11/04 08:42:26;;;;;;;4.15;0.40;;;5.70;99.90;;;;;;6249547;22;20087;-93
2021/11/04 08:44:55;;;;;;;1.73;0.30;;;5.70;99.90;;;;;;6250676;22;20015;-94
2021/11/04 08:47:21;;;;;;;4.60;0.52;;;5.80;99.90;;;;;;6250822;22;20010;-94
2021/11/04 08:49:47;;;;;;;1.27;0.52;;;5.80;99.90;;;;;;6249890;22;20015;-93
2021/11/04 08:52:13;;;;;;;3.75;0.47;;;5.80;99.90;;;;;;6249980;22;19999;-94
2021/11/04 08:54:40;;;;;;;3.13;0.40;;;5.80;99.90;;;;;;6250420;22;20011;-93
2021/11/04 08:57:07;;;;;;;3.90;0.90;;;5.80;99.90;;;;;;6250135;22;20072;-93
2021/11/04 08:59:34;;;;;;;3.22;0.43;;;5.80;99.90;;;;;;6244457;22;20000;-93
2021/11/04 09:02:00;;;;;;;1.23;0.38;;;5.80;99.90;;;;;;6249817;22;20035;-96
2021/11/04 09:04:27;;;;;;;2.97;0.50;;;5.80;99.90;;;;;;6250150;22;20008;-94
2021/11/04 09:06:54;;;;;;;5.47;1.00;;;5.80;99.90;;;;;;6250064;22;20018;-92
2021/11/04 09:09:20;;;;;;;1.77;0.40;;;5.80;99.90;;;;;;6249631;22;20010;-93
2021/11/04 09:11:45;;;;;;;3.72;1.08;;;5.80;99.90;;;;;;6249998;22;20003;-93
2021/11/04 09:14:13;;;;;;;3.05;0.60;;;5.90;99.90;;;;;;6250365;22;20004;-92
2021/11/04 09:16:39;;;;;;;2.92;0.70;;;6.00;99.90;;;;;;6250088;22;20000;-94
2021/11/04 09:19:05;;;;;;;1.08;0.50;;;6.20;99.90;;;;;;6249561;22;20015;-94
2021/11/04 09:21:30;;;;;;;1.63;0.60;;;6.30;99.90;;;;;;6249641;22;20382;-93
2021/11/04 09:23:56;;;;;;;3.17;0.40;;;6.50;99.90;;;;;;6249899;22;20011;-94
2021/11/04 09:26:22;;;;;;;2.85;0.75;;;6.60;99.90;;;;;;6249564;22;20057;-93
2021/11/04 09:28:48;;;;;;;2.72;0.30;;;6.70;99.90;;;;;;6249719;22;20004;-93
2021/11/04 09:31:13;;;;;;;4.20;0.68;;;6.70;99.90;;;;;;6249331;22;20007;-92
2021/11/04 09:33:42;;;;;;;2.95;0.45;;;6.70;99.90;;;;;;6249851;22;20269;-94
2021/11/04 09:36:09;;;;;;;2.15;0.60;;;6.70;99.90;;;;;;6249709;22;20003;-92
2021/11/04 09:38:34;;;;;;;0.93;0.35;;;6.90;99.90;;;;;;6249397;22;20020;-93
2021/11/04 09:41:00;;;;;;;0.38;0.20;;;7.10;99.90;;;;;;6249529;22;20404;-94
2021/11/04 09:43:26;;;;;;;1.70;0.52;;;7.30;99.90;;;;;;6248394;22;20435;-95
2021/11/04 09:45:52;;;;;;;1.30;0.40;;;7.60;99.90;;;;;;6249557;22;20006;-94
2021/11/04 09:48:18;;;;;;;0.88;0.40;;;7.90;99.90;;;;;;6249674;22;20090;-95
2021/11/04 09:50:44;;;;;;;0.75;0.30;;;8.20;99.90;;;;;;6249875;22;20366;-93
2021/11/04 09:53:11;;;;;;;4.35;0.50;;;8.50;99.90;;;;;;6249053;22;20530;-94
2021/11/04 09:55:37;;;;;;;1.85;0.43;;;8.80;99.90;;;;;;6248952;22;20008;-93
2021/11/04 09:58:03;;;;;;;1.85;0.50;;;9.10;99.90;;;;;;6248077;22;20047;-93
2021/11/04 10:00:38;;;;;;;2.40;0.40;;;9.40;99.90;;;;;;6249339;22;19999;-93
2021/11/04 10:03:13;;;;;;;2.03;0.60;;;9.60;99.90;;;;;;6249452;22;20067;-93
2021/11/04 10:05:43;;;;;;;6.30;0.50;;;9.80;99.90;;;;;;6249055;22;20004;-94
2021/11/04 10:08:12;;;;;;;1.43;0.50;;;9.90;99.90;;;;;;6248238;22;20003;-94
2021/11/04 10:10:38;;;;;;;0.40;0.30;;;10.10;99.90;;;;;;6248262;22;20083;-93
2021/11/04 10:13:09;;;;;;;1.58;0.57;;;10.20;99.90;;;;;;6247140;22;20430;-95
2021/11/04 10:15:36;;;;;;;;;;;10.30;99.90;;;;;;6247239;22;20008;-94
2021/11/04 10:18:20;;;;;;;4.30;0.52;;;10.50;99.90;;;;;;6248518;22;19912;-94
2021/11/04 10:21:00;;;;;;;1.83;0.50;;;10.70;99.90;;;;;;6248571;22;20007;-94
2021/11/04 10:23:34;;;;;;;6.78;2.53;;;10.90;99.20;;;;;;6249976;22;20024;-93
2021/11/04 10:26:04;;;;;;;2.03;0.50;;;11.10;98.00;;;;;;6247806;22;20038;-95
2021/11/04 10:28:31;;;;;;;2.55;0.43;;;11.20;97.00;;;;;;6248245;22;20000;-94
2021/11/04 10:30:57;;;;;;;1.42;0.47;;;11.30;96.60;;;;;;6247836;22;20691;-94
2021/11/04 10:33:38;;;;;;;3.67;0.80;;;11.50;96.00;;;;;;6248319;22;20070;-93
2021/11/04 10:36:03;;;;;;;2.10;0.85;;;11.70;95.40;;;;;;6246952;22;20057;-92
2021/11/04 10:38:44;;;;;;;1.25;0.50;;;11.80;94.70;;;;;;6247840;22;20043;-92
2021/11/04 10:41:39;;;;;;;1.13;0.50;;;12.00;93.70;;;;;;6249980;22;20004;-92
2021/11/04 10:44:05;;;;;;;2.90;0.43;;;11.90;92.50;;;;;;6249703;22;20023;-94
2021/11/04 10:46:47;;;;;;;0.73;0.30;;;11.90;92.50;;;;;;6251661;22;20004;-91
2021/11/04 10:49:14;;;;;;;1.00;0.40;;;12.00;92.40;;;;;;6252013;22;20008;-92
2021/11/04 10:51:41;;;;;;;4.60;0.60;;;12.00;91.80;;;;;;6252548;22;20007;-92
2021/11/04 10:54:10;;;;;;;4.85;0.65;;;12.10;91.50;;;;;;6250627;22;20061;-92
2021/11/04 10:56:42;;;;;;;3.58;0.73;;;12.10;91.50;;;;;;6254862;22;20043;-92
2021/11/04 10:59:13;;;;;;;1.50;0.55;;;12.30;91.20;;;;;;6253431;22;20007;-94
2021/11/04 11:01:46;;;;;;;1.17;0.40;;;12.50;90.50;;;;;;6251541;22;20095;-94
2021/11/04 11:04:24;;;;;;;1.10;0.40;;;12.60;90.10;;;;;;6251018;22;20031;-93
2021/11/04 11:06:55;;;;;;;2.90;1.77;;;12.70;89.30;;;;;;6278346;22;19999;-94
2021/11/04 11:09:33;;;;;;;2.83;0.50;;;12.80;88.20;;;;;;6248990;22;20018;-95
2021/11/04 11:12:03;;;;;;;0.95;0.38;;;12.70;87.20;;;;;;6250712;22;20007;-95
2021/11/04 11:14:29;;;;;;;;;;;12.50;86.40;;;;;;6250658;22;20018;-94
2021/11/04 11:16:57;;;;;;;1.38;0.60;;;12.40;86.80;;;;;;6277142;22;19903;-93
2021/11/04 11:19:27;;;;;;;5.55;0.47;;;12.40;87.10;;;;;;6250184;22;20316;-93
2021/11/04 11:21:54;;;;;;;1.75;0.50;;;12.30;86.90;;;;;;6250347;22;19999;-93
2021/11/04 11:24:32;;;;;;;2.10;0.52;;;12.20;86.50;;;;;;6249940;22;20155;-92
2021/11/04 11:27:00;;;;;;;3.13;0.50;;;12.10;87.00;;;;;;6250217;22;20443;-93
2021/11/04 11:29:39;;;;;;;3.55;0.43;;;12.00;86.60;;;;;;6249542;22;20007;-94
2021/11/04 11:32:22;;;;;;;3.05;0.50;;;12.00;86.60;;;;;;6249753;22;20011;-93
2021/11/04 11:34:49;;;;;;;5.55;0.30;;;11.70;86.20;;;;;;6249375;22;20719;-95
2021/11/04 11:37:21;;;;;;;1.50;0.40;;;11.50;86.40;;;;;;6250559;22;20011;-93
2021/11/04 11:39:54;;;;;;;1.58;0.30;;;11.30;87.00;;;;;;6249608;22;20031;-92
2021/11/04 11:42:21;;;;;;;1.88;0.40;;;11.10;87.60;;;;;;6249289;22;20011;-94
2021/11/04 11:44:52;;;;;;;3.20;0.60;;;11.00;88.20;;;;;;6250063;22;20451;-93
2021/11/04 11:47:22;;;;;;;4.00;0.70;;;11.00;88.70;;;;;;6250158;22;20011;-94
2021/11/04 11:50:16;;;;;;;2.00;0.50;;;10.90;88.90;;;;;;6249854;22;20074;-92
2021/11/04 11:52:46;;;;;;;4.05;0.40;;;10.80;89.00;;;;;;6249527;22;20004;-94
2021/11/04 11:55:18;;;;;;;5.25;0.43;;;10.70;89.30;;;;;;6248925;22;20339;-94
2021/11/04 11:58:16;;;;;;;2.00;0.45;;;10.70;89.80;;;;;;6250406;22;20397;-96
2021/11/04 12:00:56;;;;;;;3.38;0.47;;;10.60;89.90;;;;;;6249218;22;20454;-95
2021/11/04 12:03:38;;;;;;;0.77;0.28;;;10.40;89.80;;;;;;6249737;22;20409;-93
2021/11/04 12:06:26;;;;;;;1.10;0.30;;;10.30;90.20;;;;;;6248740;22;20000;-93
2021/11/04 12:09:00;;;;;;;3.22;0.45;;;10.20;90.50;;;;;;6248185;22;20316;-93
2021/11/04 12:11:40;;;;;;;2.90;0.28;;;10.10;90.70;;;;;;6250156;22;20343;-93
2021/11/04 12:14:18;;;;;;;5.50;0.60;;;10.10;90.80;;;;;;6250540;22;20072;-93
2021/11/04 12:16:59;;;;;;;7.10;1.05;;;10.00;90.90;;;;;;6249489;22;20015;-94
2021/11/04 12:19:42;;;;;;;2.08;0.40;;;10.00;90.90;;;;;;6249949;22;20004;-95
2021/11/04 12:22:25;;;;;;;0.43;0.22;;;9.90;91.00;;;;;;6249706;22;20451;-94
2021/11/04 12:24:53;;;;;;;1.45;0.50;;;9.80;91.20;;;;;;6249440;22;20004;-94
2021/11/04 12:27:21;;;;;;;2.33;0.32;;;9.80;91.30;;;;;;6249635;22;20500;-94
2021/11/04 12:29:48;;;;;;;1.30;0.32;;;9.70;91.30;;;;;;6248439;22;20092;-94
2021/11/04 12:32:15;;;;;;;1.48;0.28;;;9.70;91.40;;;;;;6248475;22;20008;-94
2021/11/04 12:34:43;;;;;;;5.43;1.83;;;9.80;91.60;;;;;;6248638;22;20027;-93
2021/11/04 12:37:16;;;;;;;1.35;0.57;;;9.70;91.60;;;;;;6248799;22;20018;-93
2021/11/04 12:39:46;;;;;;;0.52;0.30;;;9.70;91.60;;;;;;6248450;22;20011;-94
2021/11/04 12:42:16;;;;;;;2.50;0.45;;;9.70;91.60;;;;;;6248949;22;20072;-93
2021/11/04 12:44:44;;;;;;;2.28;0.52;;;9.60;91.60;;;;;;6249071;22;20004;-92
2021/11/04 12:47:10;;;;;;;1.33;0.45;;;9.50;91.60;;;;;;6248993;22;20236;-94
2021/11/04 12:49:40;;;;;;;2.13;0.50;;;9.50;91.80;;;;;;6248669;22;20019;-92
2021/11/04 12:52:07;;;;;;;1.08;0.40;;;9.50;92.00;;;;;;6248666;22;20039;-94
2021/11/04 12:55:04;;;;;;;3.70;1.00;;;9.50;92.00;;;;;;6249093;22;20546;-93
2021/11/04 12:57:29;;;;;;;1.00;0.43;;;9.50;92.10;;;;;;6245536;22;20083;-92
2021/11/04 13:00:03;;;;;;;2.38;0.60;;;9.40;92.00;;;;;;6249794;22;20039;-93
2021/11/04 13:02:37;;;;;;;1.98;0.70;;;9.40;92.10;;;;;;6248649;22;20007;-93